Latest Weather Observations for Moomba Airport

IDS60801

Issued at 3:12 pm CDT Tuesday 10 December 2019 (issued every 10 minutes, with the page automatically refreshed every 10 minutes)

About weather observations | Map of weather stations | Latest weather observations for SA | Other Formats
Station Details ID: 017123 Name: MOOMBA AIRPORT Lat: -28.10 Lon: 140.20 Height: 37.8 m
Data from the previous 72 hours. | See also: Recent months at Moomba Airport
Date/Time
CDT
Temp
°C
App
Temp
°C
Dew
Point
°C
Rel
Hum
%
Delta-T
°C
Wind Press
QNH
hPa
Press
MSL
hPa
Rain since
9am
mm
Dir  Spd
km/h
Gust
km/h
Spd
kts
Gust
kts
10/03:00pm 41.8 36.7 -5.5 5 22.5 NE 13 19 7 10 1010.0 1009.7 0.0
10/02:30pm 42.1 38.4 -2.9 6 22.3 E 7 15 4 8 1010.2 1009.9 0.0
10/02:00pm 42.3 38.5 -0.6 7 22.0 SSE 9 22 5 12 1010.6 1010.4 0.0
10/01:30pm 41.1 36.4 -1.5 7 21.4 ESE 13 24 7 13 1010.9 1010.7 0.0
10/01:00pm 40.6 35.0 0.0 8 20.8 ESE 19 26 10 14 1011.3 1011.1 0.0
10/12:30pm 40.0 35.3 1.1 9 20.2 SE 15 26 8 14 1011.7 1011.5 0.0
10/12:00pm 39.7 34.5 2.4 10 19.7 ESE 19 32 10 17 1012.0 1011.8 0.0
10/11:30am 38.1 32.6 3.8 12 18.3 SE 22 35 12 19 1012.2 1012.0 0.0
10/11:00am 37.2 32.1 4.2 13 17.7 SSE 20 32 11 17 1012.4 1012.2 0.0
10/10:51am 36.5 30.9 3.7 13 17.4 SE 22 30 12 16 1012.5 1012.3 0.0
10/10:34am 35.8 30.7 6.1 16 16.3 SE 22 32 12 17 1012.5 1012.3 0.0
10/10:30am 35.3 30.1 5.7 16 16.1 SE 22 32 12 17 1012.5 1012.3 0.0
10/10:28am 35.5 30.2 4.9 15 16.4 SE 22 32 12 17 1012.5 1012.3 0.0
10/10:00am 34.1 28.7 6.4 18 15.1 SE 24 33 13 18 1012.7 1012.5 0.0
10/09:30am 32.9 27.8 7.7 21 13.9 SE 24 35 13 19 1012.9 1012.7 0.0
10/09:00am 31.9 26.4 7.5 22 13.4 SE 26 35 14 19 1013.0 1012.8 0.0
10/08:30am 30.7 25.3 7.8 24 12.5 SE 26 35 14 19 1012.8 1012.6 0.0
10/08:00am 30.1 25.6 8.5 26 11.9 SE 22 32 12 17 1012.6 1012.4 0.0
10/07:30am 29.2 23.9 8.3 27 11.5 SE 26 35 14 19 1012.1 1011.9 0.0
10/07:00am 28.3 22.9 8.1 28 11.0 SSE 26 33 14 18 1011.9 1011.7 0.0
10/06:30am 27.9 22.8 7.7 28 10.9 SSE 24 32 13 17 1011.6 1011.4 0.0
10/06:27am 27.9 23.2 7.7 28 10.9 SSE 22 32 12 17 1011.6 1011.4 0.0
10/06:00am 28.1 23.3 7.4 27 11.1 SSE 22 32 12 17 1011.4 1011.2 0.0
10/05:30am 28.4 23.2 7.1 26 11.4 SSE 24 30 13 16 1011.0 1010.8 0.0
10/05:00am 29.2 23.2 7.2 25 11.8 SSE 28 35 15 19 1010.6 1010.4 0.0
10/04:30am 29.0 23.6 6.4 24 12.0 SSE 24 30 13 16 1010.5 1010.2 0.0
10/04:00am 29.1 23.8 5.2 22 12.4 S 22 32 12 17 1010.2 1009.9 0.0
10/03:30am 29.3 23.9 4.7 21 12.7 S 22 30 12 16 1010.1 1009.8 0.0
10/03:00am 29.2 23.7 4.0 20 12.9 SSE 22 30 12 16 1010.1 1009.8 0.0
10/02:30am 29.4 22.5 -2.9 12 14.6 S 24 30 13 16 1010.0 1009.7 0.0
10/02:29am 29.5 22.6 -2.9 12 14.7 S 24 30 13 16 1010.0 1009.7 0.0
10/02:25am 29.6 22.4 -5.2 10 15.1 S 24 32 13 17 1010.0 1009.7 0.0
10/02:00am 29.6 23.2 -11.7 6 16.0 SE 17 20 9 11 1009.8 1009.5 0.0
10/01:30am 30.8 24.8 -10.9 6 16.6 SE 15 20 8 11 1010.2 1009.9 0.0
10/01:00am 32.8 25.8 -11.7 5 17.8 SE 20 26 11 14 1010.4 1010.1 0.0
10/12:30am 33.6 27.6 -11.2 5 18.3 SE 15 22 8 12 1010.5 1010.2 0.0
10/12:00am 33.4 27.8 -11.3 5 18.2 SSE 13 17 7 9 1010.6 1010.4 0.0
 
Date/Time
CDT
Temp
°C
App
Temp
°C
Dew
Point
°C
Rel
Hum
%
Delta-T
°C
Wind Press
QNH
hPa
Press
MSL
hPa
Rain since
9am
mm
Dir  Spd
km/h
Gust
km/h
Spd
kts
Gust
kts
09/11:30pm 35.1 29.6 -10.1 5 19.0 SSE 13 20 7 11 1010.9 1010.7 0.0
09/11:00pm 34.3 28.7 -10.7 5 18.6 SSE 13 17 7 9 1010.9 1010.7 0.0
09/10:30pm 35.2 29.3 -10.1 5 19.1 SSE 15 19 8 10 1010.8 1010.6 0.0
09/10:00pm 35.2 29.3 -10.1 5 19.0 S 15 19 8 10 1010.7 1010.5 0.0
09/09:30pm 36.7 30.9 -9.0 5 19.8 S 15 19 8 10 1010.5 1010.2 0.0
09/09:00pm 36.7 31.6 -9.0 5 19.8 S 11 15 6 8 1010.2 1009.9 0.0
09/08:30pm 38.0 32.8 -10.9 4 20.8 S 11 15 6 8 1009.9 1009.6 0.0
09/08:00pm 39.8 34.3 -9.7 4 21.7 S 13 15 7 8 1009.7 1009.4 0.0
09/07:30pm 41.7 35.6 -12.1 3 23.2 S 15 20 8 11 1009.3 1009.0 0.0
09/07:00pm 42.5 37.2 -11.5 3 23.6 SSE 11 19 6 10 1009.1 1008.8 0.0
09/06:30pm 43.2 38.0 -11.1 3 24.0 SSW 11 17 6 9 1008.9 1008.6 0.0
09/06:00pm 43.7 39.4 -10.8 3 24.3 SSW 6 17 3 9 1008.8 1008.5 0.0
09/05:30pm 43.5 37.9 -10.9 3 24.2 WSW 13 19 7 10 1008.6 1008.3 0.0
09/05:00pm 44.1 39.7 -10.5 3 24.5 SSE 7 13 4 7 1008.8 1008.5 0.0
09/04:30pm 43.4 38.2 -11.0 3 24.1 NW 11 17 6 9 1008.9 1008.6 0.0
09/04:00pm 44.0 37.7 -10.6 3 24.4 SW 17 24 9 13 1009.0 1008.7 0.0
09/03:30pm 44.1 38.5 -10.5 3 24.5 SSE 13 22 7 12 1009.4 1009.1 0.0
09/03:00pm 43.5 36.8 -10.9 3 24.2 SW 19 24 10 13 1009.7 1009.4 0.0
09/02:30pm 43.6 38.0 -10.8 3 24.2 W 13 20 7 11 1010.1 1009.8 0.0
09/02:00pm 43.5 38.3 -10.9 3 24.2 NW 11 20 6 11 1010.5 1010.2 0.0
09/01:30pm 43.2 38.4 -11.1 3 24.0 W 9 24 5 13 1010.7 1010.5 0.0
09/01:00pm 42.9 37.3 -11.3 3 23.8 WNW 13 24 7 13 1011.2 1011.0 0.0
09/12:30pm 42.8 38.2 -7.7 4 23.4 NNW 9 20 5 11 1011.4 1011.2 0.0
09/12:00pm 41.7 35.9 -8.5 4 22.8 NNE 15 24 8 13 1011.6 1011.4 0.0
09/11:30am 41.7 34.2 -8.5 4 22.8 NNE 24 35 13 19 1011.8 1011.6 0.0
09/11:00am 40.4 32.8 -9.3 4 22.1 NE 24 33 13 18 1012.0 1011.8 0.0
09/10:30am 40.0 32.0 -9.6 4 21.9 NE 26 35 14 19 1012.2 1012.0 0.0
09/10:00am 37.6 30.9 -8.4 5 20.3 NE 20 30 11 16 1012.3 1012.1 0.0
09/09:30am 35.4 28.7 -9.9 5 19.1 ENE 19 24 10 13 1012.5 1012.3 0.0
09/09:00am 33.1 26.5 -9.2 6 17.7 ENE 19 26 10 14 1012.5 1012.3 0.0
09/08:30am 30.8 25.4 -8.9 7 16.4 ENE 13 17 7 9 1012.3 1012.1 0.0
09/08:00am 28.5 22.9 -10.6 7 15.3 ENE 13 17 7 9 1012.1 1011.9 0.0
09/07:48am 27.5 21.9 -11.3 7 14.9 E 13 15 7 8 1012.1 1011.9 0.0
09/07:30am 26.0 20.0 -10.8 8 14.0 E 15 17 8 9 1011.8 1011.6 0.0
09/07:21am 25.1 19.1 -11.4 8 13.6 E 15 17 8 9 1011.8 1011.6 0.0
09/07:00am 24.1 17.8 -10.7 9 13.0 E 17 19 9 10 1011.7 1011.5 0.0
09/06:30am 22.3 16.6 -12.1 9 12.3 ESE 13 17 7 9 1011.4 1011.2 0.0
09/06:27am 22.3 16.6 -12.1 9 12.3 ESE 13 17 7 9 1011.4 1011.2 0.0
09/06:08am 23.0 17.4 -11.5 9 12.5 ESE 13 15 7 8 1011.2 1011.0 0.0
09/06:00am 23.5 17.9 -11.2 9 12.8 ESE 13 15 7 8 1011.2 1011.0 0.0
09/05:30am 25.1 19.5 -11.4 8 13.6 ESE 13 17 7 9 1010.7 1010.5 0.0
09/05:00am 26.1 20.9 -10.7 8 14.0 SE 11 15 6 8 1010.4 1010.1 0.0
09/04:30am 26.2 20.6 -10.6 8 14.1 SE 13 17 7 9 1010.3 1010.0 0.0
09/04:00am 26.1 20.5 -10.7 8 14.0 SE 13 17 7 9 1010.2 1009.9 0.0
09/03:30am 26.4 20.8 -10.5 8 14.2 ESE 13 15 7 8 1010.1 1009.8 0.0
09/03:00am 26.7 21.2 -10.2 8 14.3 SE 13 17 7 9 1010.1 1009.8 0.0
09/02:30am 26.2 20.6 -10.6 8 14.1 ESE 13 15 7 8 1010.1 1009.8 0.0
09/02:00am 24.3 19.9 -10.6 9 13.1 SE 7 11 4 6 1010.5 1010.2 0.0
09/01:30am 24.7 20.3 -10.3 9 13.3 S 7 11 4 6 1010.8 1010.6 0.0
09/01:00am 26.1 21.7 -10.7 8 14.0 SSE 7 9 4 5 1011.0 1010.8 0.0
09/12:30am 28.0 23.7 -9.3 8 14.9 SSE 7 9 4 5 1011.2 1011.0 0.0
09/12:00am 28.1 23.7 -10.9 7 15.2 SSE 7 13 4 7 1011.4 1011.2 0.0
 
Date/Time
CDT
Temp
°C
App
Temp
°C
Dew
Point
°C
Rel
Hum
%
Delta-T
°C
Wind Press
QNH
hPa
Press
MSL
hPa
Rain since
9am
mm
Dir  Spd
km/h
Gust
km/h
Spd
kts
Gust
kts
08/11:30pm 30.9 25.1 -8.9 7 16.4 SE 15 17 8 9 1011.4 1011.2 0.0
08/11:00pm 30.7 26.0 -9.0 7 16.3 S 9 11 5 6 1011.4 1011.2 0.0
08/10:30pm 31.0 26.6 -10.7 6 16.7 S 7 9 4 5 1011.4 1011.2 0.0
08/10:00pm 31.4 27.3 -8.5 7 16.7 S 6 9 3 5 1011.2 1011.0 0.0
08/09:30pm 33.4 29.3 -9.0 6 17.9 SSE 6 7 3 4 1010.9 1010.7 0.0
08/09:00pm 35.5 30.9 -7.5 6 18.9 SE 9 11 5 6 1010.8 1010.6 0.0
08/08:30pm 35.8 31.4 -9.6 5 19.4 SE 7 9 4 5 1010.7 1010.5 0.0
08/08:00pm 36.9 33.9 -8.9 5 19.9 CALM 0 9 0 5 1010.4 1010.1 0.0
08/07:30pm 38.8 34.8 -7.6 5 20.9 ESE 6 9 3 5 1010.1 1009.8 0.0
08/07:00pm 39.5 35.3 -9.9 4 21.6 SSE 6 9 3 5 1009.7 1009.4 0.0
08/06:30pm 39.9 36.9 -9.7 4 21.8 CALM 0 0 0 0 1009.5 1009.2 0.0
08/06:00pm 40.0 35.6 -9.6 4 21.9 SSE 7 11 4 6 1009.3 1009.0 0.0
08/05:30pm 40.0 34.9 -9.6 4 21.9 E 11 22 6 12 1009.3 1009.0 0.0
08/05:00pm 40.0 35.1 -6.7 5 21.5 ESE 11 20 6 11 1009.5 1009.2 0.0
08/04:30pm 40.4 35.3 -9.3 4 22.1 SSE 11 17 6 9 1009.6 1009.3 0.0
08/04:00pm 39.6 35.1 -7.0 5 21.3 ESE 9 15 5 8 1009.9 1009.6 0.0
08/03:30pm 39.5 34.2 -7.1 5 21.3 N 13 26 7 14 1010.2 1009.9 0.0
08/03:00pm 39.5 33.8 -7.1 5 21.3 SE 15 26 8 14 1010.4 1010.1 0.0
08/02:30pm 38.8 32.3 -7.6 5 20.9 E 19 26 10 14 1010.8 1010.6 0.0
08/02:00pm 38.6 32.5 -7.7 5 20.8 ESE 17 28 9 15 1011.2 1011.0 0.0
08/01:30pm 38.7 32.2 -7.6 5 20.8 NE 19 30 10 16 1011.5 1011.3 0.0
08/01:00pm 37.6 31.8 -8.4 5 20.3 NE 15 30 8 16 1011.9 1011.7 0.0
08/12:30pm 37.6 32.4 -6.0 6 20.0 NE 13 26 7 14 1012.3 1012.1 0.0
08/12:00pm 36.7 30.7 -6.7 6 19.5 NE 17 28 9 15 1012.7 1012.5 0.0
08/11:30am 36.9 29.6 -6.5 6 19.6 ENE 24 35 13 19 1012.8 1012.6 0.0
08/11:00am 35.7 27.7 -5.4 7 18.7 ENE 28 37 15 20 1012.8 1012.6 0.0
08/10:30am 35.0 26.2 -5.9 7 18.4 E 32 41 17 22 1013.0 1012.8 0.0
08/10:00am 33.9 25.2 -4.9 8 17.6 ENE 32 39 17 21 1013.2 1013.0 0.0
08/09:30am 32.5 24.1 -6.0 8 16.9 E 30 39 16 21 1013.4 1013.2 0.0
08/09:00am 31.1 23.5 -5.5 9 16.0 E 26 33 14 18 1013.5 1013.3 0.0
08/08:30am 28.5 21.2 -6.0 10 14.7 E 24 30 13 16 1013.3 1013.1 0.0
08/08:00am 25.5 19.0 -8.3 10 13.4 E 19 24 10 13 1013.2 1013.0 0.0
08/07:30am 22.9 17.5 -8.0 12 12.0 E 13 17 7 9 1013.1 1012.9 0.0
08/07:00am 21.8 16.1 -7.8 13 11.4 ESE 15 19 8 10 1012.9 1012.7 0.0
08/06:30am 20.9 15.5 -8.5 13 11.1 ESE 13 15 7 8 1012.8 1012.6 0.0
08/06:00am 22.0 16.2 -8.7 12 11.6 SE 15 19 8 10 1012.5 1012.3 0.0
08/05:30am 21.7 16.3 -8.9 12 11.5 SE 13 17 7 9 1012.2 1012.0 0.0
08/05:00am 22.1 17.1 -8.6 12 11.7 SE 11 15 6 8 1012.1 1011.9 0.0
08/04:30am 22.8 17.4 -8.1 12 12.0 SE 13 15 7 8 1011.8 1011.6 0.0
08/04:00am 21.8 16.7 -9.9 11 11.7 ESE 11 13 6 7 1011.7 1011.5 0.0
08/03:30am 23.0 17.6 -9.0 11 12.2 ESE 13 15 7 8 1011.7 1011.5 0.0
08/03:00am 22.6 17.5 -9.3 11 12.0 ESE 11 13 6 7 1011.7 1011.5 0.0
08/02:30am 24.6 18.8 -9.0 10 13.0 ESE 15 17 8 9 1011.8 1011.6 0.0
08/02:00am 25.8 19.7 -8.1 10 13.5 ESE 17 20 9 11 1012.1 1011.9 0.0
08/01:30am 27.4 20.9 -8.2 9 14.4 SE 19 24 10 13 1012.3 1012.1 0.0
08/01:00am 28.1 21.6 -7.7 9 14.7 SE 19 24 10 13 1012.7 1012.5 0.0
08/12:30am 28.1 22.4 -7.7 9 14.7 SSE 15 17 8 9 1013.0 1012.8 0.0
08/12:00am 28.0 22.3 -7.8 9 14.7 S 15 19 8 10 1013.2 1013.0 0.0
 
Date/Time
CDT
Temp
°C
App
Temp
°C
Dew
Point
°C
Rel
Hum
%
Delta-T
°C
Wind Press
QNH
hPa
Press
MSL
hPa
Rain since
9am
mm
Dir  Spd
km/h
Gust
km/h
Spd
kts
Gust
kts
07/11:30pm 28.1 22.8 -7.7 9 14.7 S 13 17 7 9 1013.2 1013.0 0.0
07/11:00pm 30.0 23.5 -7.8 8 15.8 SSE 19 20 10 11 1013.0 1012.8 0.0
07/10:30pm 31.2 25.2 -6.9 8 16.3 SSE 17 22 9 12 1012.8 1012.6 0.0
07/10:00pm 31.1 24.7 -7.0 8 16.3 SSE 19 24 10 13 1012.6 1012.4 0.0
07/09:30pm 32.0 26.0 -6.3 8 16.7 SSE 17 24 9 13 1012.3 1012.1 0.0
07/09:00pm 32.6 26.7 -5.9 8 17.0 SE 17 24 9 13 1012.2 1012.0 0.0
07/08:30pm 33.4 27.5 -5.3 8 17.4 SSE 17 20 9 11 1011.9 1011.7 0.0
07/08:00pm 34.3 28.5 -4.6 8 17.8 SE 17 24 9 13 1011.6 1011.4 0.0
07/07:30pm 35.3 29.6 -3.9 8 18.2 SE 17 22 9 12 1011.2 1011.0 0.0
07/07:00pm 36.0 30.0 -3.4 8 18.6 SE 19 26 10 14 1010.7 1010.5 0.0
07/06:30pm 36.3 30.1 -5.0 7 19.0 SE 19 26 10 14 1010.3 1010.0 0.0
07/06:00pm 36.8 31.0 -4.6 7 19.3 SE 17 26 9 14 1010.1 1009.8 0.0
07/05:30pm 36.9 31.5 -4.5 7 19.3 SSE 15 24 8 13 1010.0 1009.7 0.0
07/05:00pm 36.9 31.1 -4.5 7 19.3 SE 17 24 9 13 1010.1 1009.8 0.0
07/04:30pm 37.1 32.5 -4.4 7 19.4 SE 11 20 6 11 1010.3 1010.0 0.0
07/04:00pm 37.3 31.2 -4.2 7 19.5 SSE 19 30 10 16 1010.5 1010.2 0.0
07/03:30pm 37.2 31.4 -4.3 7 19.5 SSE 17 24 9 13 1010.8 1010.6 0.0

Other formats

Comma delimited format used in spreadsheet applications
http://www.bom.gov.au/fwo/IDS60801/IDS60801.95481.axf

JavaScript Object Notation format (JSON) in row-major order
http://www.bom.gov.au/fwo/IDS60801/IDS60801.95481.json

Data quality

Most of these data are generated automatically and are frequently updated. Quality checks on data are not normally performed. It is possible for incorrect values to appear. Refer to information at About Latest Weather Observations and please check the disclaimer before using these data.